sensor_id;sensor_type;location;lat;lon;timestamp;pressure;altitude;pressure_sealevel;temperature;humidity
36242;BME280;22283;42.748;12.732;2023-05-14T00:04:48;97683.19;;;12.58;100.00
36242;BME280;22283;42.748;12.732;2023-05-14T00:09:48;97675.38;;;12.57;100.00
36242;BME280;22283;42.748;12.732;2023-05-14T00:14:49;97674.22;;;12.49;100.00
36242;BME280;22283;42.748;12.732;2023-05-14T00:19:50;97673.94;;;12.43;100.00
36242;BME280;22283;42.748;12.732;2023-05-14T00:24:50;97679.81;;;12.46;100.00
36242;BME280;22283;42.748;12.732;2023-05-14T00:29:51;97670.69;;;12.39;100.00
36242;BME280;22283;42.748;12.732;2023-05-14T00:34:52;97671.41;;;12.41;100.00
36242;BME280;22283;42.748;12.732;2023-05-14T00:39:52;97670.16;;;12.36;100.00
36242;BME280;22283;42.748;12.732;2023-05-14T00:44:53;97666.94;;;12.42;100.00
36242;BME280;22283;42.748;12.732;2023-05-14T00:49:54;97644.75;;;12.43;100.00
36242;BME280;22283;42.748;12.732;2023-05-14T00:54:55;97648.63;;;12.39;100.00
36242;BME280;22283;42.748;12.732;2023-05-14T00:59:57;97637.34;;;12.37;100.00
36242;BME280;22283;42.748;12.732;2023-05-14T01:04:58;97639.28;;;12.35;100.00
36242;BME280;22283;42.748;12.732;2023-05-14T01:10:10;97658.16;;;12.41;100.00
36242;BME280;22283;42.748;12.732;2023-05-14T01:15:29;97656.06;;;12.45;100.00
36242;BME280;22283;42.748;12.732;2023-05-14T01:20:30;97635.13;;;12.42;100.00
36242;BME280;22283;42.748;12.732;2023-05-14T01:25:31;97638.75;;;12.41;100.00
36242;BME280;22283;42.748;12.732;2023-05-14T01:30:35;97627.88;;;12.44;100.00
36242;BME280;22283;42.748;12.732;2023-05-14T01:35:36;97626.06;;;12.44;100.00
36242;BME280;22283;42.748;12.732;2023-05-14T01:40:38;97612.22;;;12.41;100.00
36242;BME280;22283;42.748;12.732;2023-05-14T01:45:40;97599.47;;;12.35;100.00
36242;BME280;22283;42.748;12.732;2023-05-14T01:50:41;97592.50;;;12.34;100.00
36242;BME280;22283;42.748;12.732;2023-05-14T01:55:42;97573.06;;;12.23;100.00
36242;BME280;22283;42.748;12.732;2023-05-14T02:00:43;97586.78;;;12.28;100.00
36242;BME280;22283;42.748;12.732;2023-05-14T02:05:44;97585.38;;;12.24;100.00
36242;BME280;22283;42.748;12.732;2023-05-14T02:10:44;97579.81;;;12.27;100.00
36242;BME280;22283;42.748;12.732;2023-05-14T02:15:46;97558.69;;;12.16;100.00
36242;BME280;22283;42.748;12.732;2023-05-14T02:20:49;97569.59;;;12.23;100.00
36242;BME280;22283;42.748;12.732;2023-05-14T02:25:50;97555.34;;;12.14;100.00
36242;BME280;22283;42.748;12.732;2023-05-14T02:30:51;97550.19;;;12.13;100.00
36242;BME280;22283;42.748;12.732;2023-05-14T02:35:52;97566.66;;;12.16;100.00
36242;BME280;22283;42.748;12.732;2023-05-14T02:40:52;97566.25;;;12.21;100.00
36242;BME280;22283;42.748;12.732;2023-05-14T02:45:53;97571.41;;;12.22;100.00
36242;BME280;22283;42.748;12.732;2023-05-14T02:50:54;97554.66;;;12.12;100.00
36242;BME280;22283;42.748;12.732;2023-05-14T02:55:54;97562.75;;;12.20;100.00
36242;BME280;22283;42.748;12.732;2023-05-14T03:00:55;97549.03;;;12.15;100.00
36242;BME280;22283;42.748;12.732;2023-05-14T03:05:56;97539.97;;;12.08;100.00
36242;BME280;22283;42.748;12.732;2023-05-14T03:10:57;97535.63;;;12.07;100.00
36242;BME280;22283;42.748;12.732;2023-05-14T03:15:57;97542.06;;;12.14;100.00
36242;BME280;22283;42.748;12.732;2023-05-14T03:20:58;97537.91;;;12.21;100.00
36242;BME280;22283;42.748;12.732;2023-05-14T03:25:59;97536.78;;;12.14;100.00
36242;BME280;22283;42.748;12.732;2023-05-14T03:30:59;97539.16;;;12.27;100.00
36242;BME280;22283;42.748;12.732;2023-05-14T03:36:00;97526.44;;;12.11;100.00
36242;BME280;22283;42.748;12.732;2023-05-14T03:41:01;97539.84;;;12.19;100.00
36242;BME280;22283;42.748;12.732;2023-05-14T03:46:02;97544.31;;;12.19;100.00
36242;BME280;22283;42.748;12.732;2023-05-14T03:51:03;97534.84;;;12.16;100.00
36242;BME280;22283;42.748;12.732;2023-05-14T03:56:03;97548.78;;;12.18;100.00
36242;BME280;22283;42.748;12.732;2023-05-14T04:01:04;97527.56;;;12.18;100.00
36242;BME280;22283;42.748;12.732;2023-05-14T04:06:05;97545.59;;;12.24;100.00
36242;BME280;22283;42.748;12.732;2023-05-14T04:11:06;97524.22;;;12.26;100.00
36242;BME280;22283;42.748;12.732;2023-05-14T04:16:07;97535.13;;;12.33;100.00
36242;BME280;22283;42.748;12.732;2023-05-14T04:21:09;97509.16;;;12.26;100.00
36242;BME280;22283;42.748;12.732;2023-05-14T04:26:09;97531.78;;;12.30;100.00
36242;BME280;22283;42.748;12.732;2023-05-14T04:31:11;97533.16;;;12.35;100.00
36242;BME280;22283;42.748;12.732;2023-05-14T04:36:12;97524.38;;;12.24;100.00
36242;BME280;22283;42.748;12.732;2023-05-14T04:41:13;97517.78;;;12.19;100.00
36242;BME280;22283;42.748;12.732;2023-05-14T04:46:13;97491.28;;;12.19;100.00
36242;BME280;22283;42.748;12.732;2023-05-14T04:51:14;97490.16;;;12.21;100.00
36242;BME280;22283;42.748;12.732;2023-05-14T04:56:15;97512.63;;;12.27;100.00
36242;BME280;22283;42.748;12.732;2023-05-14T05:01:15;97523.41;;;12.25;100.00
36242;BME280;22283;42.748;12.732;2023-05-14T05:06:16;97515.44;;;12.25;100.00
36242;BME280;22283;42.748;12.732;2023-05-14T05:11:17;97532.22;;;12.36;100.00
36242;BME280;22283;42.748;12.732;2023-05-14T05:16:18;97545.91;;;12.41;100.00
36242;BME280;22283;42.748;12.732;2023-05-14T05:21:18;97529.56;;;12.55;100.00
36242;BME280;22283;42.748;12.732;2023-05-14T05:26:19;97523.69;;;12.61;100.00
36242;BME280;22283;42.748;12.732;2023-05-14T05:31:21;97512.53;;;12.67;100.00
36242;BME280;22283;42.748;12.732;2023-05-14T05:36:22;97512.81;;;12.64;100.00
36242;BME280;22283;42.748;12.732;2023-05-14T05:41:22;97524.97;;;12.57;100.00
36242;BME280;22283;42.748;12.732;2023-05-14T05:46:23;97499.41;;;12.56;100.00
36242;BME280;22283;42.748;12.732;2023-05-14T05:51:24;97519.78;;;12.65;100.00
36242;BME280;22283;42.748;12.732;2023-05-14T05:56:24;97541.44;;;12.61;100.00
36242;BME280;22283;42.748;12.732;2023-05-14T06:01:25;97548.00;;;12.57;100.00
36242;BME280;22283;42.748;12.732;2023-05-14T06:06:27;97559.75;;;12.64;100.00
36242;BME280;22283;42.748;12.732;2023-05-14T06:11:28;97555.00;;;12.67;100.00
36242;BME280;22283;42.748;12.732;2023-05-14T06:16:29;97564.50;;;12.60;100.00
36242;BME280;22283;42.748;12.732;2023-05-14T06:21:29;97567.16;;;12.60;100.00
36242;BME280;22283;42.748;12.732;2023-05-14T06:26:30;97571.03;;;12.66;100.00
36242;BME280;22283;42.748;12.732;2023-05-14T06:31:31;97555.81;;;12.77;100.00
36242;BME280;22283;42.748;12.732;2023-05-14T06:36:32;97568.97;;;12.89;100.00
36242;BME280;22283;42.748;12.732;2023-05-14T06:41:33;97577.63;;;12.91;100.00
36242;BME280;22283;42.748;12.732;2023-05-14T06:46:33;97581.97;;;13.11;100.00
36242;BME280;22283;42.748;12.732;2023-05-14T06:51:34;97566.56;;;13.24;100.00
36242;BME280;22283;42.748;12.732;2023-05-14T06:56:35;97568.38;;;13.34;100.00
36242;BME280;22283;42.748;12.732;2023-05-14T07:01:36;97563.63;;;13.37;100.00
36242;BME280;22283;42.748;12.732;2023-05-14T07:06:36;97553.13;;;13.36;100.00
36242;BME280;22283;42.748;12.732;2023-05-14T07:11:37;97543.91;;;13.40;100.00
36242;BME280;22283;42.748;12.732;2023-05-14T07:16:38;97537.16;;;13.45;100.00
36242;BME280;22283;42.748;12.732;2023-05-14T07:21:39;97549.72;;;13.53;100.00
36242;BME280;22283;42.748;12.732;2023-05-14T07:26:40;97554.88;;;13.64;100.00
36242;BME280;22283;42.748;12.732;2023-05-14T07:31:41;97534.63;;;13.91;100.00
36242;BME280;22283;42.748;12.732;2023-05-14T07:36:44;97550.75;;;14.07;100.00
36242;BME280;22283;42.748;12.732;2023-05-14T07:41:46;97542.16;;;14.13;100.00
36242;BME280;22283;42.748;12.732;2023-05-14T07:46:47;97554.69;;;14.31;100.00
36242;BME280;22283;42.748;12.732;2023-05-14T07:51:47;97546.16;;;14.27;100.00
36242;BME280;22283;42.748;12.732;2023-05-14T07:56:48;97553.44;;;14.52;100.00
36242;BME280;22283;42.748;12.732;2023-05-14T08:01:49;97548.38;;;14.77;100.00
36242;BME280;22283;42.748;12.732;2023-05-14T08:06:50;97561.22;;;14.82;100.00
36242;BME280;22283;42.748;12.732;2023-05-14T08:11:51;97549.28;;;14.50;100.00
36242;BME280;22283;42.748;12.732;2023-05-14T08:16:58;97551.81;;;14.42;100.00
36242;BME280;22283;42.748;12.732;2023-05-14T08:21:58;97552.91;;;14.49;100.00
36242;BME280;22283;42.748;12.732;2023-05-14T08:26:59;97552.16;;;14.57;100.00
36242;BME280;22283;42.748;12.732;2023-05-14T08:32:01;97562.22;;;14.63;100.00
36242;BME280;22283;42.748;12.732;2023-05-14T08:37:02;97558.19;;;14.59;100.00
36242;BME280;22283;42.748;12.732;2023-05-14T08:42:05;97555.38;;;14.78;100.00
36242;BME280;22283;42.748;12.732;2023-05-14T08:47:07;97559.09;;;14.85;100.00
36242;BME280;22283;42.748;12.732;2023-05-14T08:52:09;97556.13;;;14.70;100.00
36242;BME280;22283;42.748;12.732;2023-05-14T08:57:10;97561.66;;;14.59;100.00
36242;BME280;22283;42.748;12.732;2023-05-14T09:02:13;97549.94;;;14.52;100.00
36242;BME280;22283;42.748;12.732;2023-05-14T09:07:16;97565.25;;;14.68;100.00
36242;BME280;22283;42.748;12.732;2023-05-14T09:12:17;97562.19;;;14.81;100.00
36242;BME280;22283;42.748;12.732;2023-05-14T09:17:18;97564.94;;;15.07;100.00
36242;BME280;22283;42.748;12.732;2023-05-14T09:22:19;97544.09;;;15.54;100.00
36242;BME280;22283;42.748;12.732;2023-05-14T09:27:20;97559.56;;;16.03;100.00
36242;BME280;22283;42.748;12.732;2023-05-14T09:32:21;97560.09;;;16.14;100.00
36242;BME280;22283;42.748;12.732;2023-05-14T09:37:21;97543.16;;;16.23;100.00
36242;BME280;22283;42.748;12.732;2023-05-14T09:42:25;97542.75;;;16.10;100.00
36242;BME280;22283;42.748;12.732;2023-05-14T09:47:26;97546.53;;;15.99;100.00
36242;BME280;22283;42.748;12.732;2023-05-14T09:52:26;97547.19;;;16.36;100.00
36242;BME280;22283;42.748;12.732;2023-05-14T09:57:27;97556.88;;;16.53;100.00
36242;BME280;22283;42.748;12.732;2023-05-14T10:02:35;97545.47;;;16.27;100.00
36242;BME280;22283;42.748;12.732;2023-05-14T10:07:46;97564.09;;;16.10;100.00
36242;BME280;22283;42.748;12.732;2023-05-14T10:12:59;97559.41;;;16.04;100.00
36242;BME280;22283;42.748;12.732;2023-05-14T10:18:11;97545.09;;;16.13;100.00
36242;BME280;22283;42.748;12.732;2023-05-14T10:23:12;97553.19;;;16.46;100.00
36242;BME280;22283;42.748;12.732;2023-05-14T10:28:13;97564.25;;;16.59;97.60
36242;BME280;22283;42.748;12.732;2023-05-14T10:33:14;97562.25;;;16.61;97.67
36242;BME280;22283;42.748;12.732;2023-05-14T10:38:16;97563.66;;;16.98;97.23
36242;BME280;22283;42.748;12.732;2023-05-14T10:43:16;97560.59;;;18.61;86.13
36242;BME280;22283;42.748;12.732;2023-05-14T10:48:18;97558.84;;;18.68;84.25
36242;BME280;22283;42.748;12.732;2023-05-14T10:53:19;97546.03;;;18.25;87.48
36242;BME280;22283;42.748;12.732;2023-05-14T10:58:21;97549.09;;;17.33;91.03
36242;BME280;22283;42.748;12.732;2023-05-14T11:03:24;97561.13;;;16.21;100.00
36242;BME280;22283;42.748;12.732;2023-05-14T11:08:29;97542.81;;;15.58;100.00
36242;BME280;22283;42.748;12.732;2023-05-14T11:13:30;97538.13;;;15.52;100.00
36242;BME280;22283;42.748;12.732;2023-05-14T11:18:34;97540.81;;;15.60;100.00
36242;BME280;22283;42.748;12.732;2023-05-14T11:23:38;97532.66;;;15.62;100.00
36242;BME280;22283;42.748;12.732;2023-05-14T11:28:38;97547.59;;;15.55;100.00
36242;BME280;22283;42.748;12.732;2023-05-14T11:33:39;97554.34;;;15.15;100.00
36242;BME280;22283;42.748;12.732;2023-05-14T11:38:47;97559.69;;;14.97;100.00
36242;BME280;22283;42.748;12.732;2023-05-14T11:43:48;97554.03;;;15.00;100.00
36242;BME280;22283;42.748;12.732;2023-05-14T11:48:48;97522.38;;;16.01;100.00
36242;BME280;22283;42.748;12.732;2023-05-14T11:53:49;97512.28;;;17.68;100.00
36242;BME280;22283;42.748;12.732;2023-05-14T11:58:55;97514.44;;;17.81;95.47
36242;BME280;22283;42.748;12.732;2023-05-14T12:03:56;97509.00;;;17.97;95.49
36242;BME280;22283;42.748;12.732;2023-05-14T12:08:59;97518.22;;;18.34;94.47
36242;BME280;22283;42.748;12.732;2023-05-14T12:14:00;97519.72;;;18.59;84.93
36242;BME280;22283;42.748;12.732;2023-05-14T12:19:01;97488.97;;;19.01;83.96
36242;BME280;22283;42.748;12.732;2023-05-14T12:24:02;97485.75;;;19.06;81.88
36242;BME280;22283;42.748;12.732;2023-05-14T12:29:05;97492.06;;;18.90;79.37
36242;BME280;22283;42.748;12.732;2023-05-14T12:34:06;97490.97;;;19.52;77.61
36242;BME280;22283;42.748;12.732;2023-05-14T12:39:10;97482.53;;;19.40;76.72
36242;BME280;22283;42.748;12.732;2023-05-14T12:44:11;97471.94;;;18.94;75.51
36242;BME280;22283;42.748;12.732;2023-05-14T12:49:12;97477.53;;;18.84;76.92
36242;BME280;22283;42.748;12.732;2023-05-14T12:54:13;97471.03;;;19.02;74.97
36242;BME280;22283;42.748;12.732;2023-05-14T12:59:15;97466.38;;;18.81;75.49
36242;BME280;22283;42.748;12.732;2023-05-14T13:04:16;97458.84;;;18.53;77.78
36242;BME280;22283;42.748;12.732;2023-05-14T13:09:16;97458.97;;;18.83;76.55
36242;BME280;22283;42.748;12.732;2023-05-14T13:14:17;97427.03;;;19.55;74.47
36242;BME280;22283;42.748;12.732;2023-05-14T13:19:18;97437.22;;;19.75;71.40
36242;BME280;22283;42.748;12.732;2023-05-14T13:24:18;97446.53;;;19.20;75.94
36242;BME280;22283;42.748;12.732;2023-05-14T13:29:19;97456.00;;;18.78;78.45
36242;BME280;22283;42.748;12.732;2023-05-14T13:34:20;97444.72;;;19.35;79.20
36242;BME280;22283;42.748;12.732;2023-05-14T13:39:20;97420.03;;;19.84;73.58
36242;BME280;22283;42.748;12.732;2023-05-14T13:44:26;97432.22;;;19.86;71.29
36242;BME280;22283;42.748;12.732;2023-05-14T13:49:26;97423.94;;;20.03;71.62
36242;BME280;22283;42.748;12.732;2023-05-14T13:54:27;97420.97;;;20.12;70.64
36242;BME280;22283;42.748;12.732;2023-05-14T13:59:28;97425.84;;;20.24;70.57
36242;BME280;22283;42.748;12.732;2023-05-14T14:04:29;97430.19;;;20.46;70.58
36242;BME280;22283;42.748;12.732;2023-05-14T14:09:29;97423.03;;;20.32;66.76
36242;BME280;22283;42.748;12.732;2023-05-14T14:14:34;97432.75;;;20.11;70.46
36242;BME280;22283;42.748;12.732;2023-05-14T14:19:35;97432.41;;;20.00;68.82
36242;BME280;22283;42.748;12.732;2023-05-14T14:24:38;97407.44;;;19.40;61.90
36242;BME280;22283;42.748;12.732;2023-05-14T14:29:41;97417.81;;;19.13;62.50
36242;BME280;22283;42.748;12.732;2023-05-14T14:34:42;97422.78;;;19.76;65.75
36242;BME280;22283;42.748;12.732;2023-05-14T14:39:42;97438.38;;;20.17;59.24
36242;BME280;22283;42.748;12.732;2023-05-14T14:44:43;97440.69;;;20.20;59.33
36242;BME280;22283;42.748;12.732;2023-05-14T14:49:44;97442.47;;;20.34;58.63
36242;BME280;22283;42.748;12.732;2023-05-14T14:54:44;97438.75;;;20.35;57.22
36242;BME280;22283;42.748;12.732;2023-05-14T14:59:45;97428.13;;;20.27;61.53
36242;BME280;22283;42.748;12.732;2023-05-14T15:04:46;97399.53;;;20.55;63.17
36242;BME280;22283;42.748;12.732;2023-05-14T15:09:46;97418.00;;;20.65;61.19
36242;BME280;22283;42.748;12.732;2023-05-14T15:14:47;97437.44;;;20.24;64.62
36242;BME280;22283;42.748;12.732;2023-05-14T15:19:48;97428.88;;;20.35;63.90
36242;BME280;22283;42.748;12.732;2023-05-14T15:24:48;97431.41;;;19.71;65.06
36242;BME280;22283;42.748;12.732;2023-05-14T15:29:49;97456.78;;;19.01;70.02
36242;BME280;22283;42.748;12.732;2023-05-14T15:34:49;97475.53;;;17.54;78.65
36242;BME280;22283;42.748;12.732;2023-05-14T15:39:50;97490.50;;;17.15;80.66
36242;BME280;22283;42.748;12.732;2023-05-14T15:44:50;97491.84;;;17.19;81.41
36242;BME280;22283;42.748;12.732;2023-05-14T15:49:51;97487.66;;;17.73;78.58
36242;BME280;22283;42.748;12.732;2023-05-14T15:54:52;97490.59;;;18.02;75.58
36242;BME280;22283;42.748;12.732;2023-05-14T15:59:53;97495.09;;;18.10;74.15
36242;BME280;22283;42.748;12.732;2023-05-14T16:04:54;97500.88;;;17.90;73.09
36242;BME280;22283;42.748;12.732;2023-05-14T16:09:55;97509.81;;;17.58;73.86
36242;BME280;22283;42.748;12.732;2023-05-14T16:14:55;97503.50;;;17.35;73.21
36242;BME280;22283;42.748;12.732;2023-05-14T16:19:58;97503.88;;;17.07;72.43
36242;BME280;22283;42.748;12.732;2023-05-14T16:24:59;97496.19;;;16.80;74.22
36242;BME280;22283;42.748;12.732;2023-05-14T16:29:59;97505.84;;;16.56;75.50
36242;BME280;22283;42.748;12.732;2023-05-14T16:35:00;97507.13;;;16.28;74.72
36242;BME280;22283;42.748;12.732;2023-05-14T16:40:02;97512.06;;;16.14;77.05
36242;BME280;22283;42.748;12.732;2023-05-14T16:45:03;97498.69;;;16.06;79.86
36242;BME280;22283;42.748;12.732;2023-05-14T16:50:04;97510.34;;;15.97;83.03
36242;BME280;22283;42.748;12.732;2023-05-14T16:55:05;97515.00;;;15.95;87.97
36242;BME280;22283;42.748;12.732;2023-05-14T17:00:06;97473.88;;;15.71;94.93
36242;BME280;22283;42.748;12.732;2023-05-14T17:05:08;97494.97;;;15.91;94.31
36242;BME280;22283;42.748;12.732;2023-05-14T17:10:09;97491.44;;;16.25;93.52
36242;BME280;22283;42.748;12.732;2023-05-14T17:15:10;97504.13;;;16.47;94.61
36242;BME280;22283;42.748;12.732;2023-05-14T17:20:11;97506.66;;;16.48;97.97
36242;BME280;22283;42.748;12.732;2023-05-14T17:25:11;97511.94;;;16.24;100.00
36242;BME280;22283;42.748;12.732;2023-05-14T17:30:12;97490.66;;;15.90;100.00
36242;BME280;22283;42.748;12.732;2023-05-14T17:35:13;97495.13;;;15.81;100.00
36242;BME280;22283;42.748;12.732;2023-05-14T17:40:13;97503.81;;;15.57;100.00
36242;BME280;22283;42.748;12.732;2023-05-14T17:45:14;97506.00;;;15.36;100.00
36242;BME280;22283;42.748;12.732;2023-05-14T17:50:14;97508.44;;;15.03;100.00
36242;BME280;22283;42.748;12.732;2023-05-14T17:55:15;97511.09;;;14.77;100.00
36242;BME280;22283;42.748;12.732;2023-05-14T18:00:17;97516.84;;;14.72;100.00
36242;BME280;22283;42.748;12.732;2023-05-14T18:05:20;97497.59;;;14.43;100.00
36242;BME280;22283;42.748;12.732;2023-05-14T18:10:21;97525.13;;;14.34;100.00
36242;BME280;22283;42.748;12.732;2023-05-14T18:15:21;97528.84;;;14.23;100.00
36242;BME280;22283;42.748;12.732;2023-05-14T18:20:24;97517.75;;;14.00;100.00
36242;BME280;22283;42.748;12.732;2023-05-14T18:25:25;97509.97;;;13.89;100.00
36242;BME280;22283;42.748;12.732;2023-05-14T18:30:25;97525.16;;;13.78;100.00
36242;BME280;22283;42.748;12.732;2023-05-14T18:35:26;97532.75;;;13.64;100.00
36242;BME280;22283;42.748;12.732;2023-05-14T18:40:27;97524.13;;;13.52;100.00
36242;BME280;22283;42.748;12.732;2023-05-14T18:45:28;97538.97;;;13.45;100.00
36242;BME280;22283;42.748;12.732;2023-05-14T18:50:28;97549.59;;;13.45;100.00
36242;BME280;22283;42.748;12.732;2023-05-14T18:55:29;97539.53;;;13.48;100.00
36242;BME280;22283;42.748;12.732;2023-05-14T19:00:30;97551.47;;;13.35;100.00
36242;BME280;22283;42.748;12.732;2023-05-14T19:05:34;97534.81;;;13.13;100.00
36242;BME280;22283;42.748;12.732;2023-05-14T19:10:35;97548.22;;;13.21;100.00
36242;BME280;22283;42.748;12.732;2023-05-14T19:15:36;97562.09;;;13.25;100.00
36242;BME280;22283;42.748;12.732;2023-05-14T19:20:37;97563.19;;;13.22;100.00
36242;BME280;22283;42.748;12.732;2023-05-14T19:25:38;97565.44;;;13.17;100.00
36242;BME280;22283;42.748;12.732;2023-05-14T19:30:42;97585.28;;;13.13;100.00
36242;BME280;22283;42.748;12.732;2023-05-14T19:35:48;97608.66;;;13.29;100.00
36242;BME280;22283;42.748;12.732;2023-05-14T19:40:52;97611.00;;;13.22;100.00
36242;BME280;22283;42.748;12.732;2023-05-14T19:45:56;97631.88;;;13.27;100.00
36242;BME280;22283;42.748;12.732;2023-05-14T19:50:57;97608.78;;;13.08;100.00
36242;BME280;22283;42.748;12.732;2023-05-14T19:55:58;97595.09;;;12.84;100.00
36242;BME280;22283;42.748;12.732;2023-05-14T20:00:59;97641.34;;;13.00;100.00
36242;BME280;22283;42.748;12.732;2023-05-14T20:06:00;97636.59;;;13.04;100.00
36242;BME280;22283;42.748;12.732;2023-05-14T20:11:01;97609.75;;;12.97;100.00
36242;BME280;22283;42.748;12.732;2023-05-14T20:16:02;97619.25;;;12.90;100.00
36242;BME280;22283;42.748;12.732;2023-05-14T20:21:04;97616.19;;;12.75;100.00
36242;BME280;22283;42.748;12.732;2023-05-14T20:26:05;97613.94;;;12.61;100.00
36242;BME280;22283;42.748;12.732;2023-05-14T20:31:05;97613.34;;;12.48;100.00
36242;BME280;22283;42.748;12.732;2023-05-14T20:36:06;97621.44;;;12.37;100.00
36242;BME280;22283;42.748;12.732;2023-05-14T20:41:07;97652.19;;;12.49;100.00
36242;BME280;22283;42.748;12.732;2023-05-14T20:46:11;97655.09;;;12.46;100.00
36242;BME280;22283;42.748;12.732;2023-05-14T20:51:12;97631.25;;;12.55;100.00
36242;BME280;22283;42.748;12.732;2023-05-14T20:56:15;97642.44;;;12.78;100.00
36242;BME280;22283;42.748;12.732;2023-05-14T21:01:15;97620.22;;;12.70;100.00
36242;BME280;22283;42.748;12.732;2023-05-14T21:06:16;97646.22;;;12.76;100.00
36242;BME280;22283;42.748;12.732;2023-05-14T21:11:17;97604.25;;;12.50;100.00
36242;BME280;22283;42.748;12.732;2023-05-14T21:16:17;97626.47;;;12.49;100.00
36242;BME280;22283;42.748;12.732;2023-05-14T21:21:19;97633.59;;;12.49;100.00
36242;BME280;22283;42.748;12.732;2023-05-14T21:26:20;97618.38;;;12.51;100.00
36242;BME280;22283;42.748;12.732;2023-05-14T21:31:21;97628.44;;;12.57;100.00
36242;BME280;22283;42.748;12.732;2023-05-14T21:36:22;97639.75;;;12.49;100.00
36242;BME280;22283;42.748;12.732;2023-05-14T21:41:23;97621.44;;;12.37;100.00
36242;BME280;22283;42.748;12.732;2023-05-14T21:46:23;97635.94;;;12.33;100.00
36242;BME280;22283;42.748;12.732;2023-05-14T21:51:25;97636.47;;;12.26;100.00
36242;BME280;22283;42.748;12.732;2023-05-14T21:56:25;97624.50;;;12.01;100.00
36242;BME280;22283;42.748;12.732;2023-05-14T22:01:29;97631.13;;;12.17;100.00
36242;BME280;22283;42.748;12.732;2023-05-14T22:06:30;97626.53;;;12.19;100.00
36242;BME280;22283;42.748;12.732;2023-05-14T22:11:32;97630.31;;;12.16;100.00
36242;BME280;22283;42.748;12.732;2023-05-14T22:16:32;97632.41;;;12.22;100.00
36242;BME280;22283;42.748;12.732;2023-05-14T22:21:33;97618.16;;;12.23;100.00
36242;BME280;22283;42.748;12.732;2023-05-14T22:26:34;97616.94;;;12.27;100.00
36242;BME280;22283;42.748;12.732;2023-05-14T22:31:40;97614.09;;;12.19;100.00
36242;BME280;22283;42.748;12.732;2023-05-14T22:36:41;97611.66;;;11.97;100.00
36242;BME280;22283;42.748;12.732;2023-05-14T22:41:41;97613.59;;;11.95;100.00
36242;BME280;22283;42.748;12.732;2023-05-14T22:46:42;97624.59;;;11.90;100.00
36242;BME280;22283;42.748;12.732;2023-05-14T22:51:45;97618.41;;;11.80;100.00
36242;BME280;22283;42.748;12.732;2023-05-14T22:56:46;97622.34;;;11.86;100.00
36242;BME280;22283;42.748;12.732;2023-05-14T23:01:47;97623.19;;;11.65;100.00
36242;BME280;22283;42.748;12.732;2023-05-14T23:06:48;97625.31;;;11.71;100.00
36242;BME280;22283;42.748;12.732;2023-05-14T23:11:48;97626.09;;;11.62;100.00
36242;BME280;22283;42.748;12.732;2023-05-14T23:16:50;97631.00;;;11.67;100.00
36242;BME280;22283;42.748;12.732;2023-05-14T23:21:51;97631.91;;;11.56;100.00
36242;BME280;22283;42.748;12.732;2023-05-14T23:26:51;97616.38;;;11.42;100.00
36242;BME280;22283;42.748;12.732;2023-05-14T23:31:52;97626.53;;;11.37;100.00
36242;BME280;22283;42.748;12.732;2023-05-14T23:36:53;97624.81;;;11.36;100.00
36242;BME280;22283;42.748;12.732;2023-05-14T23:41:53;97620.31;;;11.26;100.00
36242;BME280;22283;42.748;12.732;2023-05-14T23:46:54;97607.13;;;11.15;100.00
36242;BME280;22283;42.748;12.732;2023-05-14T23:51:55;97628.09;;;11.07;100.00
36242;BME280;22283;42.748;12.732;2023-05-14T23:56:56;97613.50;;;10.92;100.00
